sensor_id;sensor_type;location;lat;lon;timestamp;P1;durP1;ratioP1;P2;durP2;ratioP2
17451;SDS011;8843;48.838;9.324;2022-11-28T00:01:22;5.17;;;4.33;;
17451;SDS011;8843;48.838;9.324;2022-11-28T00:03:52;4.63;;;4.00;;
17451;SDS011;8843;48.838;9.324;2022-11-28T00:06:19;6.27;;;4.27;;
17451;SDS011;8843;48.838;9.324;2022-11-28T00:08:46;5.10;;;4.10;;
17451;SDS011;8843;48.838;9.324;2022-11-28T00:11:14;5.20;;;4.40;;
17451;SDS011;8843;48.838;9.324;2022-11-28T00:13:42;4.53;;;3.80;;
17451;SDS011;8843;48.838;9.324;2022-11-28T00:16:12;5.37;;;4.40;;
17451;SDS011;8843;48.838;9.324;2022-11-28T00:18:39;4.07;;;3.67;;
17451;SDS011;8843;48.838;9.324;2022-11-28T00:21:08;4.13;;;3.70;;
17451;SDS011;8843;48.838;9.324;2022-11-28T00:23:36;4.33;;;3.63;;
17451;SDS011;8843;48.838;9.324;2022-11-28T00:26:05;4.00;;;3.60;;
17451;SDS011;8843;48.838;9.324;2022-11-28T00:28:33;3.50;;;3.20;;
17451;SDS011;8843;48.838;9.324;2022-11-28T00:31:00;5.13;;;3.87;;
17451;SDS011;8843;48.838;9.324;2022-11-28T00:33:30;3.83;;;3.43;;
17451;SDS011;8843;48.838;9.324;2022-11-28T00:35:58;5.33;;;4.03;;
17451;SDS011;8843;48.838;9.324;2022-11-28T00:38:27;4.60;;;3.67;;
17451;SDS011;8843;48.838;9.324;2022-11-28T00:40:58;3.77;;;3.37;;
17451;SDS011;8843;48.838;9.324;2022-11-28T00:43:26;4.20;;;3.70;;
17451;SDS011;8843;48.838;9.324;2022-11-28T00:45:53;5.30;;;4.80;;
17451;SDS011;8843;48.838;9.324;2022-11-28T00:48:21;4.10;;;3.70;;
17451;SDS011;8843;48.838;9.324;2022-11-28T00:50:48;4.30;;;3.53;;
17451;SDS011;8843;48.838;9.324;2022-11-28T00:53:16;6.03;;;3.93;;
17451;SDS011;8843;48.838;9.324;2022-11-28T00:55:44;4.07;;;3.67;;
17451;SDS011;8843;48.838;9.324;2022-11-28T00:58:11;3.63;;;3.20;;
17451;SDS011;8843;48.838;9.324;2022-11-28T01:00:38;4.30;;;3.90;;
17451;SDS011;8843;48.838;9.324;2022-11-28T01:03:05;5.07;;;4.33;;
17451;SDS011;8843;48.838;9.324;2022-11-28T01:05:32;4.20;;;3.80;;
17451;SDS011;8843;48.838;9.324;2022-11-28T01:08:05;3.43;;;3.13;;
17451;SDS011;8843;48.838;9.324;2022-11-28T01:10:32;4.93;;;3.93;;
17451;SDS011;8843;48.838;9.324;2022-11-28T01:13:00;3.50;;;3.20;;
17451;SDS011;8843;48.838;9.324;2022-11-28T01:15:27;4.13;;;3.63;;
17451;SDS011;8843;48.838;9.324;2022-11-28T01:17:54;4.80;;;3.47;;
17451;SDS011;8843;48.838;9.324;2022-11-28T01:20:21;4.10;;;3.70;;
17451;SDS011;8843;48.838;9.324;2022-11-28T01:22:48;5.73;;;3.80;;
17451;SDS011;8843;48.838;9.324;2022-11-28T01:25:15;4.23;;;3.70;;
17451;SDS011;8843;48.838;9.324;2022-11-28T01:27:42;4.20;;;3.17;;
17451;SDS011;8843;48.838;9.324;2022-11-28T01:30:10;3.77;;;3.23;;
17451;SDS011;8843;48.838;9.324;2022-11-28T01:32:37;4.20;;;3.80;;
17451;SDS011;8843;48.838;9.324;2022-11-28T01:35:04;3.77;;;3.40;;
17451;SDS011;8843;48.838;9.324;2022-11-28T01:37:31;3.73;;;3.20;;
17451;SDS011;8843;48.838;9.324;2022-11-28T01:39:58;3.93;;;3.40;;
17451;SDS011;8843;48.838;9.324;2022-11-28T01:42:25;3.80;;;3.50;;
17451;SDS011;8843;48.838;9.324;2022-11-28T01:45:06;5.30;;;4.13;;
17451;SDS011;8843;48.838;9.324;2022-11-28T01:47:44;4.43;;;3.73;;
17451;SDS011;8843;48.838;9.324;2022-11-28T01:50:12;3.87;;;3.40;;
17451;SDS011;8843;48.838;9.324;2022-11-28T01:52:41;4.57;;;3.83;;
17451;SDS011;8843;48.838;9.324;2022-11-28T01:55:10;5.17;;;4.00;;
17451;SDS011;8843;48.838;9.324;2022-11-28T01:57:40;6.13;;;3.60;;
17451;SDS011;8843;48.838;9.324;2022-11-28T02:00:08;4.43;;;3.83;;
17451;SDS011;8843;48.838;9.324;2022-11-28T02:02:41;4.67;;;4.10;;
17451;SDS011;8843;48.838;9.324;2022-11-28T02:05:11;4.00;;;3.60;;
17451;SDS011;8843;48.838;9.324;2022-11-28T02:07:40;3.70;;;3.40;;
17451;SDS011;8843;48.838;9.324;2022-11-28T02:10:09;4.70;;;3.57;;
17451;SDS011;8843;48.838;9.324;2022-11-28T02:12:46;4.30;;;3.90;;
17451;SDS011;8843;48.838;9.324;2022-11-28T02:15:32;4.53;;;3.63;;
17451;SDS011;8843;48.838;9.324;2022-11-28T02:18:21;3.80;;;3.50;;
17451;SDS011;8843;48.838;9.324;2022-11-28T02:27:04;4.60;;;3.70;;
17451;SDS011;8843;48.838;9.324;2022-11-28T02:35:48;5.00;;;4.50;;
17451;SDS011;8843;48.838;9.324;2022-11-28T02:38:21;4.53;;;3.80;;
17451;SDS011;8843;48.838;9.324;2022-11-28T02:40:58;5.87;;;4.40;;
17451;SDS011;8843;48.838;9.324;2022-11-28T02:43:30;4.97;;;4.07;;
17451;SDS011;8843;48.838;9.324;2022-11-28T02:46:06;4.30;;;3.90;;
17451;SDS011;8843;48.838;9.324;2022-11-28T02:48:42;5.20;;;4.07;;
17451;SDS011;8843;48.838;9.324;2022-11-28T02:51:14;4.57;;;4.00;;
17451;SDS011;8843;48.838;9.324;2022-11-28T02:53:45;5.80;;;4.23;;
17451;SDS011;8843;48.838;9.324;2022-11-28T02:56:14;4.37;;;3.77;;
17451;SDS011;8843;48.838;9.324;2022-11-28T02:58:41;4.60;;;4.00;;
17451;SDS011;8843;48.838;9.324;2022-11-28T03:01:11;4.20;;;3.60;;
17451;SDS011;8843;48.838;9.324;2022-11-28T03:03:49;4.23;;;3.67;;
17451;SDS011;8843;48.838;9.324;2022-11-28T03:06:26;5.83;;;3.90;;
17451;SDS011;8843;48.838;9.324;2022-11-28T03:11:57;4.40;;;3.70;;
17451;SDS011;8843;48.838;9.324;2022-11-28T03:14:42;4.60;;;4.10;;
17451;SDS011;8843;48.838;9.324;2022-11-28T03:17:17;4.47;;;3.60;;
17451;SDS011;8843;48.838;9.324;2022-11-28T03:19:58;5.70;;;4.33;;
17451;SDS011;8843;48.838;9.324;2022-11-28T03:22:37;4.67;;;4.27;;
17451;SDS011;8843;48.838;9.324;2022-11-28T03:25:09;5.07;;;4.00;;
17451;SDS011;8843;48.838;9.324;2022-11-28T03:27:45;4.97;;;4.10;;
17451;SDS011;8843;48.838;9.324;2022-11-28T03:30:17;4.70;;;4.20;;
17451;SDS011;8843;48.838;9.324;2022-11-28T03:32:50;4.60;;;3.97;;
17451;SDS011;8843;48.838;9.324;2022-11-28T03:35:21;4.40;;;4.00;;
17451;SDS011;8843;48.838;9.324;2022-11-28T03:37:53;5.07;;;3.90;;
17451;SDS011;8843;48.838;9.324;2022-11-28T03:40:25;3.87;;;3.40;;
17451;SDS011;8843;48.838;9.324;2022-11-28T03:42:56;4.93;;;3.73;;
17451;SDS011;8843;48.838;9.324;2022-11-28T03:45:27;3.83;;;3.47;;
17451;SDS011;8843;48.838;9.324;2022-11-28T03:47:57;4.73;;;3.97;;
17451;SDS011;8843;48.838;9.324;2022-11-28T03:50:30;4.53;;;3.67;;
17451;SDS011;8843;48.838;9.324;2022-11-28T03:53:02;4.20;;;3.80;;
17451;SDS011;8843;48.838;9.324;2022-11-28T03:55:37;5.83;;;4.33;;
17451;SDS011;8843;48.838;9.324;2022-11-28T03:58:07;5.93;;;3.70;;
17451;SDS011;8843;48.838;9.324;2022-11-28T04:00:41;4.80;;;3.83;;
17451;SDS011;8843;48.838;9.324;2022-11-28T04:03:16;5.47;;;4.00;;
17451;SDS011;8843;48.838;9.324;2022-11-28T04:05:53;4.90;;;4.00;;
17451;SDS011;8843;48.838;9.324;2022-11-28T04:08:27;5.27;;;4.17;;
17451;SDS011;8843;48.838;9.324;2022-11-28T04:11:00;3.70;;;3.40;;
17451;SDS011;8843;48.838;9.324;2022-11-28T04:13:30;4.90;;;3.83;;
17451;SDS011;8843;48.838;9.324;2022-11-28T04:16:02;4.53;;;3.80;;
17451;SDS011;8843;48.838;9.324;2022-11-28T04:18:35;4.30;;;3.73;;
17451;SDS011;8843;48.838;9.324;2022-11-28T04:21:11;4.07;;;3.27;;
17451;SDS011;8843;48.838;9.324;2022-11-28T04:23:45;6.20;;;4.33;;
17451;SDS011;8843;48.838;9.324;2022-11-28T04:26:15;5.13;;;3.83;;
17451;SDS011;8843;48.838;9.324;2022-11-28T04:28:45;4.57;;;4.13;;
17451;SDS011;8843;48.838;9.324;2022-11-28T04:31:15;4.10;;;3.70;;
17451;SDS011;8843;48.838;9.324;2022-11-28T04:33:46;5.23;;;4.00;;
17451;SDS011;8843;48.838;9.324;2022-11-28T04:36:19;4.33;;;3.63;;
17451;SDS011;8843;48.838;9.324;2022-11-28T04:38:49;5.53;;;4.47;;
17451;SDS011;8843;48.838;9.324;2022-11-28T04:41:21;4.77;;;4.27;;
17451;SDS011;8843;48.838;9.324;2022-11-28T04:43:52;4.70;;;4.00;;
17451;SDS011;8843;48.838;9.324;2022-11-28T04:46:25;6.47;;;4.00;;
17451;SDS011;8843;48.838;9.324;2022-11-28T04:48:55;5.80;;;4.33;;
17451;SDS011;8843;48.838;9.324;2022-11-28T04:51:25;6.20;;;4.07;;
17451;SDS011;8843;48.838;9.324;2022-11-28T04:53:59;4.20;;;3.80;;
17451;SDS011;8843;48.838;9.324;2022-11-28T04:56:30;4.40;;;3.93;;
17451;SDS011;8843;48.838;9.324;2022-11-28T04:59:04;6.73;;;4.77;;
17451;SDS011;8843;48.838;9.324;2022-11-28T05:01:32;5.10;;;4.47;;
17451;SDS011;8843;48.838;9.324;2022-11-28T05:04:01;5.70;;;4.40;;
17451;SDS011;8843;48.838;9.324;2022-11-28T05:06:30;5.47;;;4.03;;
17451;SDS011;8843;48.838;9.324;2022-11-28T05:08:59;4.33;;;3.93;;
17451;SDS011;8843;48.838;9.324;2022-11-28T05:11:27;6.43;;;4.10;;
17451;SDS011;8843;48.838;9.324;2022-11-28T05:13:54;5.00;;;3.90;;
17451;SDS011;8843;48.838;9.324;2022-11-28T05:16:22;4.83;;;4.43;;
17451;SDS011;8843;48.838;9.324;2022-11-28T05:18:49;5.27;;;4.40;;
17451;SDS011;8843;48.838;9.324;2022-11-28T05:21:16;6.00;;;5.00;;
17451;SDS011;8843;48.838;9.324;2022-11-28T05:23:44;4.90;;;4.07;;
17451;SDS011;8843;48.838;9.324;2022-11-28T05:26:12;4.60;;;4.03;;
17451;SDS011;8843;48.838;9.324;2022-11-28T05:28:41;5.13;;;4.37;;
17451;SDS011;8843;48.838;9.324;2022-11-28T05:31:09;4.37;;;3.70;;
17451;SDS011;8843;48.838;9.324;2022-11-28T05:33:36;6.40;;;4.60;;
17451;SDS011;8843;48.838;9.324;2022-11-28T05:36:04;4.40;;;3.93;;
17451;SDS011;8843;48.838;9.324;2022-11-28T05:38:32;4.47;;;3.97;;
17451;SDS011;8843;48.838;9.324;2022-11-28T05:41:01;4.27;;;3.83;;
17451;SDS011;8843;48.838;9.324;2022-11-28T05:43:29;5.30;;;4.20;;
17451;SDS011;8843;48.838;9.324;2022-11-28T05:45:56;5.27;;;4.30;;
17451;SDS011;8843;48.838;9.324;2022-11-28T05:48:23;5.50;;;4.13;;
17451;SDS011;8843;48.838;9.324;2022-11-28T05:50:50;4.87;;;4.10;;
17451;SDS011;8843;48.838;9.324;2022-11-28T05:53:17;4.57;;;4.00;;
17451;SDS011;8843;48.838;9.324;2022-11-28T05:55:45;4.03;;;3.63;;
17451;SDS011;8843;48.838;9.324;2022-11-28T05:58:14;4.63;;;3.60;;
17451;SDS011;8843;48.838;9.324;2022-11-28T06:00:41;5.53;;;4.07;;
17451;SDS011;8843;48.838;9.324;2022-11-28T06:03:08;5.33;;;4.10;;
17451;SDS011;8843;48.838;9.324;2022-11-28T06:05:37;4.00;;;3.60;;
17451;SDS011;8843;48.838;9.324;2022-11-28T06:08:05;4.00;;;3.60;;
17451;SDS011;8843;48.838;9.324;2022-11-28T06:10:33;4.37;;;3.20;;
17451;SDS011;8843;48.838;9.324;2022-11-28T06:13:00;5.17;;;4.40;;
17451;SDS011;8843;48.838;9.324;2022-11-28T06:15:29;4.23;;;3.70;;
17451;SDS011;8843;48.838;9.324;2022-11-28T06:17:56;4.70;;;4.07;;
17451;SDS011;8843;48.838;9.324;2022-11-28T06:20:23;4.40;;;3.90;;
17451;SDS011;8843;48.838;9.324;2022-11-28T06:22:50;4.20;;;3.60;;
17451;SDS011;8843;48.838;9.324;2022-11-28T06:25:17;4.37;;;3.90;;
17451;SDS011;8843;48.838;9.324;2022-11-28T06:27:44;5.67;;;3.67;;
17451;SDS011;8843;48.838;9.324;2022-11-28T06:30:11;6.40;;;3.73;;
17451;SDS011;8843;48.838;9.324;2022-11-28T06:32:40;6.13;;;4.20;;
17451;SDS011;8843;48.838;9.324;2022-11-28T06:35:07;5.17;;;4.23;;
17451;SDS011;8843;48.838;9.324;2022-11-28T06:37:34;4.50;;;3.57;;
17451;SDS011;8843;48.838;9.324;2022-11-28T06:40:01;5.63;;;3.97;;
17451;SDS011;8843;48.838;9.324;2022-11-28T06:42:28;4.90;;;4.07;;
17451;SDS011;8843;48.838;9.324;2022-11-28T06:44:55;5.10;;;3.50;;
17451;SDS011;8843;48.838;9.324;2022-11-28T06:47:22;7.97;;;4.00;;
17451;SDS011;8843;48.838;9.324;2022-11-28T06:49:50;6.00;;;4.50;;
17451;SDS011;8843;48.838;9.324;2022-11-28T06:52:17;5.37;;;4.10;;
17451;SDS011;8843;48.838;9.324;2022-11-28T06:54:45;5.10;;;4.40;;
17451;SDS011;8843;48.838;9.324;2022-11-28T06:57:14;6.90;;;4.97;;
17451;SDS011;8843;48.838;9.324;2022-11-28T06:59:41;5.17;;;4.33;;
17451;SDS011;8843;48.838;9.324;2022-11-28T07:02:08;6.17;;;4.80;;
17451;SDS011;8843;48.838;9.324;2022-11-28T07:04:36;5.30;;;4.80;;
17451;SDS011;8843;48.838;9.324;2022-11-28T07:07:05;6.20;;;4.57;;
17451;SDS011;8843;48.838;9.324;2022-11-28T07:09:32;6.23;;;4.63;;
17451;SDS011;8843;48.838;9.324;2022-11-28T07:11:58;5.47;;;4.60;;
17451;SDS011;8843;48.838;9.324;2022-11-28T07:14:25;6.90;;;4.70;;
17451;SDS011;8843;48.838;9.324;2022-11-28T07:16:52;5.00;;;4.50;;
17451;SDS011;8843;48.838;9.324;2022-11-28T07:19:19;5.53;;;4.13;;
17451;SDS011;8843;48.838;9.324;2022-11-28T07:21:47;5.43;;;4.50;;
17451;SDS011;8843;48.838;9.324;2022-11-28T07:24:16;5.53;;;4.50;;
17451;SDS011;8843;48.838;9.324;2022-11-28T07:26:43;6.63;;;4.03;;
17451;SDS011;8843;48.838;9.324;2022-11-28T07:29:12;5.13;;;3.80;;
17451;SDS011;8843;48.838;9.324;2022-11-28T07:31:40;5.70;;;4.17;;
17451;SDS011;8843;48.838;9.324;2022-11-28T07:34:08;6.13;;;4.73;;
17451;SDS011;8843;48.838;9.324;2022-11-28T07:36:36;5.83;;;4.93;;
17451;SDS011;8843;48.838;9.324;2022-11-28T07:39:03;6.53;;;4.80;;
17451;SDS011;8843;48.838;9.324;2022-11-28T07:41:34;4.30;;;3.90;;
17451;SDS011;8843;48.838;9.324;2022-11-28T07:44:02;6.80;;;4.33;;
17451;SDS011;8843;48.838;9.324;2022-11-28T07:46:30;4.90;;;4.13;;
17451;SDS011;8843;48.838;9.324;2022-11-28T07:48:58;5.77;;;4.20;;
17451;SDS011;8843;48.838;9.324;2022-11-28T07:51:25;7.77;;;4.97;;
17451;SDS011;8843;48.838;9.324;2022-11-28T07:53:54;7.33;;;4.53;;
17451;SDS011;8843;48.838;9.324;2022-11-28T07:56:22;6.00;;;4.20;;
17451;SDS011;8843;48.838;9.324;2022-11-28T07:58:52;4.27;;;3.77;;
17451;SDS011;8843;48.838;9.324;2022-11-28T08:01:19;5.60;;;4.10;;
17451;SDS011;8843;48.838;9.324;2022-11-28T08:03:48;4.10;;;3.70;;
17451;SDS011;8843;48.838;9.324;2022-11-28T08:06:16;5.70;;;4.17;;
17451;SDS011;8843;48.838;9.324;2022-11-28T08:08:44;6.43;;;4.10;;
17451;SDS011;8843;48.838;9.324;2022-11-28T08:11:12;5.47;;;3.77;;
17451;SDS011;8843;48.838;9.324;2022-11-28T08:13:41;7.57;;;3.93;;
17451;SDS011;8843;48.838;9.324;2022-11-28T08:16:10;5.23;;;4.10;;
17451;SDS011;8843;48.838;9.324;2022-11-28T08:18:39;5.63;;;4.20;;
17451;SDS011;8843;48.838;9.324;2022-11-28T08:21:07;5.77;;;4.10;;
17451;SDS011;8843;48.838;9.324;2022-11-28T08:23:36;4.63;;;3.90;;
17451;SDS011;8843;48.838;9.324;2022-11-28T08:26:04;6.07;;;4.23;;
17451;SDS011;8843;48.838;9.324;2022-11-28T08:28:33;4.90;;;4.37;;
17451;SDS011;8843;48.838;9.324;2022-11-28T08:31:06;5.60;;;4.07;;
17451;SDS011;8843;48.838;9.324;2022-11-28T08:33:36;5.57;;;3.53;;
17451;SDS011;8843;48.838;9.324;2022-11-28T08:36:04;4.43;;;4.00;;
17451;SDS011;8843;48.838;9.324;2022-11-28T08:38:31;4.90;;;4.43;;
17451;SDS011;8843;48.838;9.324;2022-11-28T08:41:01;3.90;;;3.50;;
17451;SDS011;8843;48.838;9.324;2022-11-28T08:43:29;4.30;;;3.90;;
17451;SDS011;8843;48.838;9.324;2022-11-28T08:45:55;6.07;;;4.67;;
17451;SDS011;8843;48.838;9.324;2022-11-28T08:48:24;5.63;;;3.97;;
17451;SDS011;8843;48.838;9.324;2022-11-28T08:50:51;5.13;;;4.00;;
17451;SDS011;8843;48.838;9.324;2022-11-28T08:53:18;4.70;;;4.23;;
17451;SDS011;8843;48.838;9.324;2022-11-28T08:55:45;5.50;;;4.17;;
17451;SDS011;8843;48.838;9.324;2022-11-28T08:58:12;4.67;;;4.20;;
17451;SDS011;8843;48.838;9.324;2022-11-28T09:00:40;6.03;;;4.80;;
17451;SDS011;8843;48.838;9.324;2022-11-28T09:03:08;5.70;;;4.50;;
17451;SDS011;8843;48.838;9.324;2022-11-28T09:05:40;5.10;;;4.60;;
17451;SDS011;8843;48.838;9.324;2022-11-28T09:08:09;6.27;;;4.77;;
17451;SDS011;8843;48.838;9.324;2022-11-28T09:10:36;5.13;;;4.47;;
17451;SDS011;8843;48.838;9.324;2022-11-28T09:13:04;4.93;;;4.10;;
17451;SDS011;8843;48.838;9.324;2022-11-28T09:15:32;6.13;;;4.80;;
17451;SDS011;8843;48.838;9.324;2022-11-28T09:17:59;6.03;;;4.47;;
17451;SDS011;8843;48.838;9.324;2022-11-28T09:20:26;6.13;;;4.83;;
17451;SDS011;8843;48.838;9.324;2022-11-28T09:22:55;5.43;;;4.67;;
17451;SDS011;8843;48.838;9.324;2022-11-28T09:25:21;5.50;;;4.77;;
17451;SDS011;8843;48.838;9.324;2022-11-28T09:27:48;6.03;;;4.63;;
17451;SDS011;8843;48.838;9.324;2022-11-28T09:30:15;7.07;;;5.10;;
17451;SDS011;8843;48.838;9.324;2022-11-28T09:32:46;5.33;;;4.70;;
17451;SDS011;8843;48.838;9.324;2022-11-28T09:35:13;6.53;;;5.10;;
17451;SDS011;8843;48.838;9.324;2022-11-28T09:37:40;6.00;;;4.37;;
17451;SDS011;8843;48.838;9.324;2022-11-28T09:40:13;5.87;;;4.60;;
17451;SDS011;8843;48.838;9.324;2022-11-28T09:42:42;6.80;;;4.90;;
17451;SDS011;8843;48.838;9.324;2022-11-28T09:45:11;6.50;;;4.17;;
17451;SDS011;8843;48.838;9.324;2022-11-28T09:47:41;5.23;;;4.67;;
17451;SDS011;8843;48.838;9.324;2022-11-28T09:50:12;6.50;;;4.23;;
17451;SDS011;8843;48.838;9.324;2022-11-28T09:52:43;6.83;;;4.63;;
17451;SDS011;8843;48.838;9.324;2022-11-28T09:55:17;5.57;;;4.70;;
17451;SDS011;8843;48.838;9.324;2022-11-28T09:57:53;6.27;;;4.90;;
17451;SDS011;8843;48.838;9.324;2022-11-28T10:00:21;5.50;;;4.30;;
17451;SDS011;8843;48.838;9.324;2022-11-28T10:02:54;6.40;;;4.60;;
17451;SDS011;8843;48.838;9.324;2022-11-28T10:05:31;9.43;;;5.77;;
17451;SDS011;8843;48.838;9.324;2022-11-28T10:08:08;5.20;;;4.63;;
17451;SDS011;8843;48.838;9.324;2022-11-28T10:10:46;5.20;;;4.10;;
17451;SDS011;8843;48.838;9.324;2022-11-28T10:13:23;6.30;;;4.37;;
17451;SDS011;8843;48.838;9.324;2022-11-28T10:15:55;5.27;;;4.40;;
17451;SDS011;8843;48.838;9.324;2022-11-28T10:18:28;6.10;;;4.40;;
17451;SDS011;8843;48.838;9.324;2022-11-28T10:21:07;6.40;;;4.53;;
17451;SDS011;8843;48.838;9.324;2022-11-28T10:23:43;5.77;;;4.63;;
17451;SDS011;8843;48.838;9.324;2022-11-28T10:26:14;7.93;;;5.10;;
17451;SDS011;8843;48.838;9.324;2022-11-28T10:28:47;5.07;;;4.37;;
17451;SDS011;8843;48.838;9.324;2022-11-28T10:31:18;5.07;;;4.23;;
17451;SDS011;8843;48.838;9.324;2022-11-28T10:33:51;6.03;;;4.90;;
17451;SDS011;8843;48.838;9.324;2022-11-28T10:36:23;5.90;;;5.03;;
17451;SDS011;8843;48.838;9.324;2022-11-28T10:38:53;5.93;;;4.60;;
17451;SDS011;8843;48.838;9.324;2022-11-28T10:41:22;6.63;;;4.17;;
17451;SDS011;8843;48.838;9.324;2022-11-28T10:43:56;7.90;;;4.50;;
17451;SDS011;8843;48.838;9.324;2022-11-28T10:46:32;5.17;;;4.50;;
17451;SDS011;8843;48.838;9.324;2022-11-28T10:49:12;6.27;;;4.47;;
17451;SDS011;8843;48.838;9.324;2022-11-28T10:51:47;5.67;;;4.20;;
17451;SDS011;8843;48.838;9.324;2022-11-28T10:54:23;5.97;;;4.63;;
17451;SDS011;8843;48.838;9.324;2022-11-28T10:57:02;6.40;;;4.80;;
17451;SDS011;8843;48.838;9.324;2022-11-28T10:59:37;6.43;;;4.43;;
17451;SDS011;8843;48.838;9.324;2022-11-28T11:02:20;6.87;;;4.60;;
17451;SDS011;8843;48.838;9.324;2022-11-28T11:05:01;6.43;;;4.50;;
17451;SDS011;8843;48.838;9.324;2022-11-28T11:07:28;6.73;;;4.70;;
17451;SDS011;8843;48.838;9.324;2022-11-28T11:09:59;5.17;;;4.27;;
17451;SDS011;8843;48.838;9.324;2022-11-28T11:12:34;7.00;;;4.73;;
17451;SDS011;8843;48.838;9.324;2022-11-28T11:15:13;5.63;;;4.23;;
17451;SDS011;8843;48.838;9.324;2022-11-28T11:17:42;7.80;;;4.10;;
17451;SDS011;8843;48.838;9.324;2022-11-28T11:20:22;6.50;;;5.03;;
17451;SDS011;8843;48.838;9.324;2022-11-28T11:22:53;9.13;;;4.47;;
17451;SDS011;8843;48.838;9.324;2022-11-28T11:25:21;6.47;;;4.40;;
17451;SDS011;8843;48.838;9.324;2022-11-28T11:27:52;7.37;;;4.83;;
17451;SDS011;8843;48.838;9.324;2022-11-28T11:30:23;9.67;;;4.67;;
17451;SDS011;8843;48.838;9.324;2022-11-28T11:32:52;7.07;;;4.63;;
17451;SDS011;8843;48.838;9.324;2022-11-28T11:35:20;6.83;;;4.43;;
17451;SDS011;8843;48.838;9.324;2022-11-28T11:37:49;6.27;;;4.90;;
17451;SDS011;8843;48.838;9.324;2022-11-28T11:40:19;7.10;;;4.83;;
17451;SDS011;8843;48.838;9.324;2022-11-28T11:42:52;7.23;;;4.70;;
17451;SDS011;8843;48.838;9.324;2022-11-28T11:45:25;7.40;;;5.00;;
17451;SDS011;8843;48.838;9.324;2022-11-28T11:47:54;6.90;;;4.37;;
17451;SDS011;8843;48.838;9.324;2022-11-28T11:50:22;5.20;;;4.53;;
17451;SDS011;8843;48.838;9.324;2022-11-28T11:52:59;6.90;;;4.60;;
17451;SDS011;8843;48.838;9.324;2022-11-28T11:55:31;5.23;;;4.10;;
17451;SDS011;8843;48.838;9.324;2022-11-28T11:58:04;9.83;;;5.27;;
17451;SDS011;8843;48.838;9.324;2022-11-28T12:00:36;6.93;;;4.40;;
17451;SDS011;8843;48.838;9.324;2022-11-28T12:03:05;5.37;;;4.07;;
17451;SDS011;8843;48.838;9.324;2022-11-28T12:05:43;6.47;;;5.07;;
17451;SDS011;8843;48.838;9.324;2022-11-28T12:08:15;6.53;;;4.60;;
17451;SDS011;8843;48.838;9.324;2022-11-28T12:10:50;6.17;;;4.27;;
17451;SDS011;8843;48.838;9.324;2022-11-28T12:13:20;5.57;;;4.40;;
17451;SDS011;8843;48.838;9.324;2022-11-28T12:15:54;5.40;;;4.60;;
17451;SDS011;8843;48.838;9.324;2022-11-28T12:18:27;6.17;;;4.30;;
17451;SDS011;8843;48.838;9.324;2022-11-28T12:21:02;8.53;;;4.47;;
17451;SDS011;8843;48.838;9.324;2022-11-28T12:23:44;6.90;;;6.07;;
17451;SDS011;8843;48.838;9.324;2022-11-28T12:26:24;8.07;;;5.13;;
17451;SDS011;8843;48.838;9.324;2022-11-28T12:29:02;10.23;;;6.47;;
17451;SDS011;8843;48.838;9.324;2022-11-28T12:31:42;7.77;;;5.73;;
17451;SDS011;8843;48.838;9.324;2022-11-28T12:34:17;8.10;;;6.20;;
17451;SDS011;8843;48.838;9.324;2022-11-28T12:36:54;9.40;;;7.20;;
17451;SDS011;8843;48.838;9.324;2022-11-28T12:39:30;7.47;;;6.00;;
17451;SDS011;8843;48.838;9.324;2022-11-28T12:42:10;9.07;;;6.03;;
17451;SDS011;8843;48.838;9.324;2022-11-28T12:44:52;7.13;;;5.67;;
17451;SDS011;8843;48.838;9.324;2022-11-28T12:47:33;7.67;;;6.50;;
17451;SDS011;8843;48.838;9.324;2022-11-28T12:50:12;9.43;;;6.37;;
17451;SDS011;8843;48.838;9.324;2022-11-28T12:52:48;8.10;;;5.70;;
17451;SDS011;8843;48.838;9.324;2022-11-28T12:55:20;7.10;;;5.67;;
17451;SDS011;8843;48.838;9.324;2022-11-28T12:57:54;9.27;;;5.90;;
17451;SDS011;8843;48.838;9.324;2022-11-28T13:00:29;13.07;;;6.47;;
17451;SDS011;8843;48.838;9.324;2022-11-28T13:03:04;11.03;;;6.97;;
17451;SDS011;8843;48.838;9.324;2022-11-28T13:05:39;9.60;;;6.07;;
17451;SDS011;8843;48.838;9.324;2022-11-28T13:08:28;6.23;;;5.23;;
17451;SDS011;8843;48.838;9.324;2022-11-28T13:11:17;7.53;;;5.37;;
17451;SDS011;8843;48.838;9.324;2022-11-28T13:13:55;9.23;;;6.50;;
17451;SDS011;8843;48.838;9.324;2022-11-28T13:16:28;7.70;;;6.33;;
17451;SDS011;8843;48.838;9.324;2022-11-28T13:19:02;7.97;;;6.00;;
17451;SDS011;8843;48.838;9.324;2022-11-28T13:21:37;7.67;;;5.97;;
17451;SDS011;8843;48.838;9.324;2022-11-28T13:24:12;6.57;;;5.53;;
17451;SDS011;8843;48.838;9.324;2022-11-28T13:26:49;8.73;;;5.70;;
17451;SDS011;8843;48.838;9.324;2022-11-28T13:29:25;8.10;;;5.53;;
17451;SDS011;8843;48.838;9.324;2022-11-28T13:32:02;7.30;;;5.83;;
17451;SDS011;8843;48.838;9.324;2022-11-28T13:34:35;7.50;;;5.77;;
17451;SDS011;8843;48.838;9.324;2022-11-28T13:37:03;8.23;;;6.37;;
17451;SDS011;8843;48.838;9.324;2022-11-28T13:39:38;9.07;;;5.67;;
17451;SDS011;8843;48.838;9.324;2022-11-28T13:42:27;9.53;;;5.50;;
17451;SDS011;8843;48.838;9.324;2022-11-28T13:45:00;11.23;;;5.43;;
17451;SDS011;8843;48.838;9.324;2022-11-28T13:47:33;10.30;;;5.63;;
17451;SDS011;8843;48.838;9.324;2022-11-28T13:52:59;8.63;;;5.67;;
17451;SDS011;8843;48.838;9.324;2022-11-28T13:55:40;7.30;;;5.77;;
17451;SDS011;8843;48.838;9.324;2022-11-28T13:58:14;8.50;;;5.97;;
17451;SDS011;8843;48.838;9.324;2022-11-28T14:00:56;7.57;;;5.70;;
17451;SDS011;8843;48.838;9.324;2022-11-28T14:03:26;7.77;;;6.50;;
17451;SDS011;8843;48.838;9.324;2022-11-28T14:05:55;8.47;;;5.80;;
17451;SDS011;8843;48.838;9.324;2022-11-28T14:08:26;8.37;;;5.87;;
17451;SDS011;8843;48.838;9.324;2022-11-28T14:11:01;7.17;;;6.03;;
17451;SDS011;8843;48.838;9.324;2022-11-28T14:13:54;8.07;;;5.53;;
17451;SDS011;8843;48.838;9.324;2022-11-28T14:16:44;8.03;;;5.20;;
17451;SDS011;8843;48.838;9.324;2022-11-28T14:19:26;7.20;;;5.07;;
17451;SDS011;8843;48.838;9.324;2022-11-28T14:22:08;8.27;;;5.67;;
17451;SDS011;8843;48.838;9.324;2022-11-28T14:24:50;7.30;;;5.20;;
17451;SDS011;8843;48.838;9.324;2022-11-28T14:27:22;6.63;;;5.90;;
17451;SDS011;8843;48.838;9.324;2022-11-28T14:29:53;10.90;;;7.00;;
17451;SDS011;8843;48.838;9.324;2022-11-28T14:32:31;6.73;;;5.43;;
17451;SDS011;8843;48.838;9.324;2022-11-28T14:35:03;10.63;;;7.33;;
17451;SDS011;8843;48.838;9.324;2022-11-28T14:37:44;8.63;;;6.17;;
17451;SDS011;8843;48.838;9.324;2022-11-28T14:43:31;9.77;;;7.10;;
17451;SDS011;8843;48.838;9.324;2022-11-28T14:46:22;9.23;;;6.80;;
17451;SDS011;8843;48.838;9.324;2022-11-28T14:54:52;12.70;;;6.90;;
17451;SDS011;8843;48.838;9.324;2022-11-28T14:57:24;8.87;;;6.93;;
17451;SDS011;8843;48.838;9.324;2022-11-28T14:59:55;9.13;;;6.30;;
17451;SDS011;8843;48.838;9.324;2022-11-28T15:02:40;8.03;;;5.97;;
17451;SDS011;8843;48.838;9.324;2022-11-28T15:05:26;8.67;;;6.30;;
17451;SDS011;8843;48.838;9.324;2022-11-28T15:10:56;7.37;;;5.87;;
17451;SDS011;8843;48.838;9.324;2022-11-28T15:13:48;9.83;;;5.53;;
17451;SDS011;8843;48.838;9.324;2022-11-28T15:16:23;9.00;;;6.70;;
17451;SDS011;8843;48.838;9.324;2022-11-28T15:18:57;9.37;;;6.43;;
17451;SDS011;8843;48.838;9.324;2022-11-28T15:21:30;11.83;;;6.93;;
17451;SDS011;8843;48.838;9.324;2022-11-28T15:24:13;8.10;;;5.87;;
17451;SDS011;8843;48.838;9.324;2022-11-28T15:26:44;7.00;;;5.63;;
17451;SDS011;8843;48.838;9.324;2022-11-28T15:29:15;7.67;;;5.10;;
17451;SDS011;8843;48.838;9.324;2022-11-28T15:31:46;8.33;;;5.63;;
17451;SDS011;8843;48.838;9.324;2022-11-28T15:34:18;9.37;;;5.90;;
17451;SDS011;8843;48.838;9.324;2022-11-28T15:36:50;7.87;;;6.20;;
17451;SDS011;8843;48.838;9.324;2022-11-28T15:39:23;6.90;;;5.50;;
17451;SDS011;8843;48.838;9.324;2022-11-28T15:41:55;11.20;;;7.20;;
17451;SDS011;8843;48.838;9.324;2022-11-28T15:44:25;10.70;;;8.67;;
17451;SDS011;8843;48.838;9.324;2022-11-28T15:46:53;14.80;;;9.93;;
17451;SDS011;8843;48.838;9.324;2022-11-28T15:49:21;11.33;;;8.40;;
17451;SDS011;8843;48.838;9.324;2022-11-28T15:51:51;10.60;;;8.20;;
17451;SDS011;8843;48.838;9.324;2022-11-28T15:54:30;9.43;;;7.47;;
17451;SDS011;8843;48.838;9.324;2022-11-28T15:57:03;11.00;;;7.87;;